createdAt,value
2018-04-10T00:01:26.517Z,36.92
2018-04-10T00:03:53.322Z,42.67
2018-04-10T00:06:20.167Z,38.97
2018-04-10T00:08:46.964Z,40.33
2018-04-10T00:11:13.589Z,37.92
2018-04-10T00:23:25.325Z,38.38
2018-04-10T00:25:52.612Z,36.70
2018-04-10T00:28:23.280Z,37.83
2018-04-10T00:30:50.586Z,40.28
2018-04-10T00:33:17.601Z,43.95
2018-04-10T00:35:48.458Z,38.92
2018-04-10T00:38:16.695Z,37.25
2018-04-10T00:40:43.989Z,39.08
2018-04-10T00:43:15.720Z,41.92
2018-04-10T00:45:43.039Z,42.38
2018-04-10T00:48:09.682Z,38.00
2018-04-10T00:50:36.456Z,37.33
2018-04-10T00:53:09.878Z,38.97
2018-04-10T00:55:36.535Z,44.88
2018-04-10T00:58:07.338Z,40.20
2018-04-10T01:00:34.091Z,41.33
2018-04-10T01:03:00.713Z,43.35
2018-04-10T01:05:27.673Z,39.22
2018-04-10T01:07:54.531Z,42.17
2018-04-10T01:10:21.235Z,38.88
2018-04-10T01:12:48.501Z,39.78
2018-04-10T01:15:15.996Z,39.30
2018-04-10T01:17:43.338Z,39.45
2018-04-10T01:20:09.997Z,40.90
2018-04-10T01:22:37.040Z,40.08
2018-04-10T01:25:08.051Z,39.13
2018-04-10T01:27:34.719Z,42.47
2018-04-10T01:30:02.015Z,40.50
2018-04-10T01:32:28.819Z,40.38
2018-04-10T01:34:55.453Z,42.30
2018-04-10T01:37:22.091Z,43.17
2018-04-10T01:39:48.976Z,41.55
2018-04-10T01:42:15.801Z,39.50
2018-04-10T01:44:42.454Z,41.85
2018-04-10T01:47:09.115Z,41.33
2018-04-10T01:49:36.212Z,39.75
2018-04-10T01:52:02.829Z,46.65
2018-04-10T01:54:29.922Z,42.88
2018-04-10T01:56:56.579Z,42.83
2018-04-10T01:59:23.951Z,40.95
2018-04-10T02:01:52.048Z,44.42
2018-04-10T02:04:20.906Z,47.00
2018-04-10T02:06:47.570Z,39.45
2018-04-10T02:09:14.209Z,39.08
2018-04-10T02:11:43.403Z,43.97
2018-04-10T02:14:10.989Z,40.90
2018-04-10T02:16:38.525Z,40.95
2018-04-10T02:19:05.182Z,44.95
2018-04-10T02:21:31.902Z,44.65
2018-04-10T02:23:59.042Z,45.83
2018-04-10T02:26:25.879Z,43.20
2018-04-10T02:28:52.573Z,41.65
2018-04-10T02:31:19.258Z,45.72
2018-04-10T02:33:45.934Z,45.40
2018-04-10T02:36:12.664Z,43.10
2018-04-10T02:38:39.776Z,39.45
2018-04-10T02:41:06.447Z,43.53
2018-04-10T02:43:33.164Z,48.35
2018-04-10T02:45:59.941Z,44.10
2018-04-10T02:48:27.430Z,44.55
2018-04-10T02:50:54.134Z,42.33
2018-04-10T02:53:20.886Z,42.55
2018-04-10T02:55:47.587Z,41.97
2018-04-10T02:58:14.338Z,48.95
2018-04-10T03:00:44.887Z,42.03
2018-04-10T03:03:16.041Z,45.03
2018-04-10T03:05:47.549Z,43.80
2018-04-10T03:08:14.331Z,43.80
2018-04-10T03:10:46.666Z,45.10
2018-04-10T03:13:13.463Z,48.42
2018-04-10T03:15:41.655Z,44.75
2018-04-10T03:18:08.444Z,40.10
2018-04-10T03:20:35.127Z,46.17
2018-04-10T03:23:01.840Z,42.20
2018-04-10T03:25:28.521Z,42.60
2018-04-10T03:27:55.278Z,41.25
2018-04-10T03:30:21.960Z,42.28
2018-04-10T03:32:48.815Z,41.58
2018-04-10T03:35:15.848Z,42.62
2018-04-10T03:37:43.911Z,49.40
2018-04-10T03:40:10.791Z,42.72
2018-04-10T03:42:37.545Z,40.90
2018-04-10T03:45:05.677Z,40.75
2018-04-10T03:47:32.499Z,44.15
2018-04-10T03:49:59.202Z,38.42
2018-04-10T03:52:26.156Z,41.83
2018-04-10T03:54:52.826Z,41.00
2018-04-10T03:57:20.608Z,41.33
2018-04-10T03:59:47.274Z,39.40
2018-04-10T04:02:14.308Z,39.05
2018-04-10T04:14:25.955Z,39.42
2018-04-10T04:16:59.126Z,37.85
2018-04-10T04:19:32.929Z,38.47
2018-04-10T04:22:06.406Z,36.72
2018-04-10T04:24:33.942Z,42.00
2018-04-10T04:27:00.603Z,36.88
2018-04-10T04:29:27.341Z,39.85
2018-04-10T04:31:57.777Z,37.88
2018-04-10T04:34:24.583Z,36.65
2018-04-10T04:36:55.866Z,37.38
2018-04-10T04:39:26.898Z,38.80
2018-04-10T04:41:58.666Z,38.00
2018-04-10T04:44:25.374Z,35.50
2018-04-10T04:46:52.031Z,37.72
2018-04-10T04:49:18.739Z,42.47
2018-04-10T04:51:46.443Z,39.47
2018-04-10T04:54:13.117Z,40.12
2018-04-10T04:56:45.549Z,40.20
2018-04-10T04:59:12.189Z,40.03
2018-04-10T05:01:42.473Z,39.00
2018-04-10T05:04:09.109Z,41.90
2018-04-10T05:06:36.040Z,42.20
2018-04-10T05:09:03.869Z,39.33
2018-04-10T05:11:30.538Z,41.67
2018-04-10T05:14:01.329Z,40.30
2018-04-10T05:16:27.991Z,43.72
2018-04-10T05:18:58.036Z,40.20
2018-04-10T05:21:24.666Z,38.33
2018-04-10T05:23:51.390Z,37.92
2018-04-10T05:26:18.080Z,37.10
2018-04-10T05:28:45.319Z,36.67
2018-04-10T05:31:12.009Z,37.78
2018-04-10T05:33:43.142Z,36.70
2018-04-10T05:36:10.609Z,39.35
2018-04-10T05:38:41.566Z,43.63
2018-04-10T05:41:08.986Z,42.50
2018-04-10T05:43:36.423Z,39.95
2018-04-10T05:46:04.033Z,38.58
2018-04-10T05:48:30.905Z,41.00
2018-04-10T05:50:58.142Z,39.10
2018-04-10T05:53:24.981Z,39.03
2018-04-10T05:55:51.662Z,38.22
2018-04-10T05:58:19.057Z,36.92
2018-04-10T06:00:46.442Z,38.00
2018-04-10T06:03:13.383Z,40.22
2018-04-10T06:05:44.101Z,37.20
2018-04-10T06:08:10.786Z,35.40
2018-04-10T06:10:38.833Z,36.85
2018-04-10T06:13:05.889Z,33.75
2018-04-10T06:15:32.599Z,37.55
2018-04-10T06:18:03.366Z,37.92
2018-04-10T06:20:30.023Z,44.08
2018-04-10T06:22:57.575Z,36.30
2018-04-10T06:25:25.194Z,41.10
2018-04-10T06:27:52.021Z,37.72
2018-04-10T06:30:23.707Z,38.50
2018-04-10T06:32:50.425Z,36.55
2018-04-10T06:35:22.197Z,35.67
2018-04-10T06:37:49.606Z,41.60
2018-04-10T06:40:16.235Z,38.10
2018-04-10T06:42:42.862Z,40.55
2018-04-10T06:45:09.485Z,48.60
2018-04-10T06:47:36.123Z,40.73
2018-04-10T06:50:02.745Z,44.87
2018-04-10T06:52:29.376Z,40.33
2018-04-10T06:54:56.010Z,37.67
2018-04-10T06:57:22.649Z,42.77
2018-04-10T06:59:49.265Z,39.50
2018-04-10T07:02:15.895Z,37.83
2018-04-10T07:04:42.510Z,37.33
2018-04-10T07:07:09.137Z,42.07
2018-04-10T07:09:35.742Z,39.77
2018-04-10T07:12:02.377Z,45.43
2018-04-10T07:14:29.002Z,39.63
2018-04-10T07:16:55.622Z,40.50
2018-04-10T07:19:22.255Z,39.37
2018-04-10T07:21:48.875Z,38.07
2018-04-10T07:24:15.522Z,36.93
2018-04-10T07:26:42.145Z,33.17
2018-04-10T07:29:08.770Z,36.50
2018-04-10T07:31:35.408Z,34.10
2018-04-10T07:34:02.040Z,32.37
2018-04-10T07:36:29.334Z,31.63
2018-04-10T07:38:55.994Z,33.17
2018-04-10T07:41:22.594Z,34.97
2018-04-10T07:43:49.224Z,35.00
2018-04-10T07:46:15.832Z,33.10
2018-04-10T07:48:42.457Z,32.13
2018-04-10T07:51:09.070Z,31.40
2018-04-10T07:53:35.693Z,32.37
2018-04-10T07:56:02.363Z,30.90
2018-04-10T07:58:28.985Z,30.80
2018-04-10T08:00:55.614Z,30.70
2018-04-10T08:03:22.255Z,31.93
2018-04-10T08:05:48.861Z,33.07
2018-04-10T08:08:15.491Z,34.33
2018-04-10T08:10:42.127Z,33.40
2018-04-10T08:13:08.769Z,33.10
2018-04-10T08:15:35.395Z,31.97
2018-04-10T08:18:02.098Z,35.50
2018-04-10T08:20:28.790Z,35.27
2018-04-10T08:22:55.398Z,35.50
2018-04-10T08:25:22.047Z,37.13
2018-04-10T08:27:48.675Z,35.33
2018-04-10T08:30:15.312Z,32.50
2018-04-10T08:32:41.918Z,33.50
2018-04-10T08:35:08.592Z,34.23
2018-04-10T08:37:35.201Z,32.10
2018-04-10T08:40:01.981Z,33.93
2018-04-10T08:42:28.595Z,33.37
2018-04-10T08:44:55.275Z,32.07
2018-04-10T08:47:21.898Z,34.97
2018-04-10T08:49:48.519Z,32.53
2018-04-10T08:52:15.157Z,32.20
2018-04-10T08:54:41.786Z,32.83
2018-04-10T08:57:08.428Z,32.80
2018-04-10T08:59:35.050Z,32.27
2018-04-10T09:02:01.681Z,32.67
2018-04-10T09:04:28.295Z,35.03
2018-04-10T09:06:54.929Z,33.83
2018-04-10T09:09:21.599Z,36.13
2018-04-10T09:11:48.194Z,32.17
2018-04-10T09:14:14.821Z,31.63
2018-04-10T09:16:41.470Z,30.77
2018-04-10T09:19:08.085Z,36.80
2018-04-10T09:21:34.698Z,32.10
2018-04-10T09:24:01.368Z,33.53
2018-04-10T09:26:28.047Z,33.00
2018-04-10T09:28:54.695Z,34.03
2018-04-10T09:31:21.318Z,34.37
2018-04-10T09:33:47.949Z,35.10
2018-04-10T09:36:14.791Z,33.13
2018-04-10T09:38:41.438Z,36.10
2018-04-10T09:41:08.105Z,34.00
2018-04-10T09:43:35.102Z,30.60
2018-04-10T09:46:01.809Z,30.47
2018-04-10T09:48:28.639Z,33.67
2018-04-10T09:50:55.406Z,33.20
2018-04-10T09:53:22.187Z,32.00
2018-04-10T09:55:49.068Z,33.20
2018-04-10T09:58:15.862Z,34.30
2018-04-10T10:00:42.663Z,32.90
2018-04-10T10:03:09.500Z,34.53
2018-04-10T10:05:36.305Z,31.67
2018-04-10T10:08:03.331Z,33.37
2018-04-10T10:10:30.014Z,32.53
2018-04-10T10:12:57.623Z,34.00
2018-04-10T10:15:24.344Z,32.43
2018-04-10T10:17:51.105Z,35.20
2018-04-10T10:20:17.870Z,33.10
2018-04-10T10:22:44.694Z,32.13
2018-04-10T10:25:11.534Z,32.00
2018-04-10T10:27:38.214Z,34.07
2018-04-10T10:30:04.984Z,34.07
2018-04-10T10:32:31.884Z,36.27
2018-04-10T10:34:58.810Z,35.23
2018-04-10T10:37:25.700Z,33.43
2018-04-10T10:39:52.485Z,35.17
2018-04-10T10:42:19.283Z,37.07
2018-04-10T10:44:46.197Z,39.10
2018-04-10T10:47:12.959Z,34.43
2018-04-10T10:49:39.714Z,34.67
2018-04-10T10:52:06.460Z,34.70
2018-04-10T10:54:35.098Z,37.33
2018-04-10T10:57:01.773Z,34.50
2018-04-10T10:59:28.584Z,36.33
2018-04-10T11:01:55.655Z,34.47
2018-04-10T11:04:22.402Z,35.27
2018-04-10T11:06:49.435Z,34.83
2018-04-10T11:09:16.881Z,35.07
2018-04-10T11:11:45.944Z,33.13
2018-04-10T11:14:13.068Z,36.60
2018-04-10T11:16:39.913Z,33.97
2018-04-10T11:19:06.789Z,38.10
2018-04-10T11:21:33.807Z,32.70
2018-04-10T11:24:00.686Z,38.07
2018-04-10T11:26:27.730Z,34.50
2018-04-10T11:28:54.628Z,37.03
2018-04-10T11:31:21.345Z,34.70
2018-04-10T11:33:48.201Z,36.37
2018-04-10T11:36:15.134Z,33.77
2018-04-10T11:38:44.807Z,34.10
2018-04-10T11:41:12.069Z,35.27
2018-04-10T11:43:38.930Z,32.60
2018-04-10T11:46:05.733Z,35.50
2018-04-10T11:48:32.601Z,34.57
2018-04-10T11:50:59.511Z,34.40
2018-04-10T11:53:26.446Z,33.60
2018-04-10T11:55:53.460Z,34.13
2018-04-10T11:58:20.828Z,40.80
2018-04-10T12:00:47.598Z,36.20
2018-04-10T12:03:14.345Z,35.33
2018-04-10T12:05:41.272Z,37.30
2018-04-10T12:08:08.473Z,40.17
2018-04-10T12:10:36.771Z,36.30
2018-04-10T12:13:03.636Z,34.83
2018-04-10T12:15:30.534Z,39.07
2018-04-10T12:17:57.321Z,37.53
2018-04-10T12:20:24.406Z,38.40
2018-04-10T12:22:51.239Z,36.20
2018-04-10T12:25:18.096Z,39.33
2018-04-10T12:27:45.240Z,36.00
2018-04-10T12:30:12.184Z,35.37
2018-04-10T12:32:38.996Z,35.77
2018-04-10T12:35:06.399Z,36.57
2018-04-10T12:37:33.178Z,38.27
2018-04-10T12:39:59.971Z,40.00
2018-04-10T12:42:27.597Z,40.10
2018-04-10T12:44:54.495Z,40.10
2018-04-10T12:47:21.916Z,37.47
2018-04-10T12:49:49.294Z,40.00
2018-04-10T12:52:20.851Z,39.07
2018-04-10T12:54:48.042Z,43.23
2018-04-10T12:57:14.880Z,39.50
2018-04-10T12:59:41.624Z,44.50
2018-04-10T13:02:08.447Z,41.10
2018-04-10T13:04:35.241Z,47.53
2018-04-10T13:07:02.312Z,40.90
2018-04-10T15:08:40.952Z,53.13
2018-04-10T15:11:07.615Z,49.70
2018-04-10T15:13:34.272Z,51.43
2018-04-10T15:16:01.174Z,48.13
2018-04-10T15:18:27.839Z,49.80
2018-04-10T15:20:54.468Z,47.17
2018-04-10T15:23:21.121Z,47.87
2018-04-10T15:25:47.746Z,47.33
2018-04-10T15:28:14.407Z,49.63
2018-04-10T15:30:41.077Z,53.97
2018-04-10T15:33:07.800Z,48.50
2018-04-10T15:35:34.757Z,51.07
2018-04-10T15:38:01.513Z,51.10
2018-04-10T15:40:28.289Z,50.67
2018-04-10T15:42:55.285Z,56.03
2018-04-10T15:45:22.059Z,51.43
2018-04-10T15:47:48.902Z,51.20
2018-04-10T15:50:15.678Z,47.00
2018-04-10T15:52:42.474Z,56.37
2018-04-10T15:55:09.307Z,62.47
2018-04-10T15:57:36.198Z,53.70
2018-04-10T16:00:03.029Z,45.73
2018-04-10T16:02:29.818Z,50.20
2018-04-10T16:04:56.587Z,52.90
2018-04-10T16:07:23.445Z,52.57
2018-04-10T16:09:50.906Z,51.23
2018-04-10T16:12:17.873Z,51.87
2018-04-10T16:14:44.859Z,53.07
2018-04-10T16:17:11.922Z,58.63
2018-04-10T16:19:38.774Z,47.80
2018-04-10T16:22:05.628Z,51.37
2018-04-10T16:24:32.388Z,49.97
2018-04-10T16:26:59.179Z,49.90
2018-04-10T16:29:26.033Z,54.30
2018-04-10T16:31:52.847Z,48.70
2018-04-10T16:34:19.605Z,47.93
2018-04-10T16:36:46.470Z,51.23
2018-04-10T16:39:13.278Z,49.83
2018-04-10T16:41:40.171Z,50.07
2018-04-10T16:44:06.970Z,46.93
2018-04-10T16:46:33.814Z,49.20
2018-04-10T16:49:00.876Z,49.47
2018-04-10T16:51:27.939Z,47.63
2018-04-10T16:53:54.864Z,44.20
2018-04-10T16:56:21.803Z,51.40
2018-04-10T16:58:48.664Z,49.07
2018-04-10T17:01:15.622Z,50.93
2018-04-10T17:03:42.528Z,47.60
2018-04-10T17:06:10.142Z,43.77
2018-04-10T17:08:37.122Z,42.50
2018-04-10T17:11:04.078Z,42.50
2018-04-10T17:13:30.989Z,44.37
2018-04-10T17:15:57.853Z,42.53
2018-04-10T17:18:26.802Z,43.20
2018-04-10T17:20:55.151Z,43.27
2018-04-10T17:23:22.606Z,45.53
2018-04-10T17:25:49.688Z,43.93
2018-04-10T17:28:17.369Z,45.90
2018-04-10T17:30:44.265Z,43.20
2018-04-10T17:33:11.172Z,42.03
2018-04-10T17:35:38.785Z,43.97
2018-04-10T17:38:05.687Z,44.17
2018-04-10T17:40:32.709Z,42.90
2018-04-10T17:42:59.674Z,46.70
2018-04-10T17:45:26.647Z,45.20
2018-04-10T17:47:53.532Z,43.23
2018-04-10T17:50:20.320Z,41.80
2018-04-10T17:52:47.039Z,49.83
2018-04-10T17:55:14.565Z,59.23
2018-04-10T17:57:41.439Z,53.53
2018-04-10T18:00:08.255Z,44.00
2018-04-10T18:02:35.195Z,47.37
2018-04-10T18:05:02.022Z,43.17
2018-04-10T18:07:29.816Z,43.90
2018-04-10T18:09:57.701Z,45.43
2018-04-10T18:12:24.669Z,42.87
2018-04-10T18:14:51.699Z,45.17
2018-04-10T18:17:18.849Z,45.03
2018-04-10T18:19:45.945Z,44.57
2018-04-10T18:22:12.923Z,44.93
2018-04-10T18:24:40.436Z,42.97
2018-04-10T18:27:07.361Z,52.35
2018-04-10T18:29:34.312Z,47.90
2018-04-10T18:32:01.135Z,45.03
2018-04-10T18:34:27.907Z,42.73
2018-04-10T18:36:54.892Z,44.43
2018-04-10T18:39:21.703Z,49.20
2018-04-10T18:41:49.433Z,48.35
2018-04-10T18:44:17.659Z,45.57
2018-04-10T18:46:44.608Z,44.58
2018-04-10T18:49:11.806Z,45.95
2018-04-10T18:51:38.946Z,48.78
2018-04-10T18:54:06.511Z,49.17
2018-04-10T18:56:33.589Z,50.50
2018-04-10T18:59:00.500Z,50.07
2018-04-10T19:01:28.539Z,46.90
2018-04-10T19:03:56.261Z,46.40
2018-04-10T19:06:24.244Z,47.62
2018-04-10T19:28:29.692Z,51.63
2018-04-10T19:30:56.898Z,48.80
2018-04-10T19:33:23.966Z,46.83
2018-04-10T19:35:54.330Z,46.13
2018-04-10T19:38:22.193Z,48.25
2018-04-10T19:40:50.164Z,48.87
2018-04-10T19:43:17.471Z,45.40
2018-04-10T19:45:44.380Z,48.27
2018-04-10T19:48:12.334Z,47.57
2018-04-10T19:50:39.156Z,43.50
2018-04-10T19:53:06.021Z,43.80
2018-04-10T19:55:32.864Z,44.35
2018-04-10T19:57:59.782Z,47.00
2018-04-10T20:00:31.581Z,45.75
2018-04-10T20:02:59.570Z,47.85
2018-04-10T20:05:26.471Z,41.10
2018-04-10T20:07:53.517Z,48.70
2018-04-10T20:10:20.484Z,46.97
2018-04-10T20:12:47.373Z,43.92
2018-04-10T20:15:14.461Z,45.70
2018-04-10T20:17:42.859Z,43.67
2018-04-10T20:20:09.740Z,44.55
2018-04-10T20:22:36.990Z,47.15
2018-04-10T20:25:03.787Z,44.90
2018-04-10T20:27:30.519Z,46.55
2018-04-10T20:29:57.283Z,41.88
2018-04-10T20:32:24.119Z,44.45
2018-04-10T20:34:51.506Z,43.70
2018-04-10T20:37:18.624Z,42.17
2018-04-10T20:39:45.609Z,43.50
2018-04-10T20:42:12.488Z,46.03
2018-04-10T20:44:39.542Z,41.47
2018-04-10T20:47:10.707Z,42.90
2018-04-10T20:49:45.145Z,44.63
2018-04-10T20:52:11.990Z,45.55
2018-04-10T20:54:38.862Z,42.22
2018-04-10T20:57:05.600Z,40.55
2018-04-10T20:59:32.385Z,42.65
2018-04-10T21:01:59.280Z,38.45
2018-04-10T21:04:26.084Z,47.08
2018-04-10T21:06:53.031Z,42.50
2018-04-10T21:09:20.565Z,39.28
2018-04-10T21:11:47.744Z,43.13
2018-04-10T21:14:14.679Z,40.03
2018-04-10T21:16:41.379Z,40.80
2018-04-10T21:19:08.163Z,40.03
2018-04-10T21:21:34.976Z,38.97
2018-04-10T21:24:03.016Z,42.83
2018-04-10T21:26:29.734Z,41.13
2018-04-10T21:28:57.352Z,40.12
2018-04-10T21:31:24.211Z,42.50
2018-04-10T21:33:51.716Z,41.65
2018-04-10T21:36:19.216Z,42.85
2018-04-10T21:38:46.473Z,44.97
2018-04-10T21:41:13.239Z,40.53
2018-04-10T21:43:40.313Z,38.33
2018-04-10T21:46:07.808Z,42.67
2018-04-10T21:48:36.291Z,43.40
2018-04-10T21:51:03.119Z,41.53
2018-04-10T21:53:30.916Z,39.65
2018-04-10T21:55:57.846Z,37.42
2018-04-10T21:58:24.585Z,34.13
2018-04-10T22:00:51.506Z,31.10
2018-04-10T22:03:18.290Z,32.05
2018-04-10T22:05:45.035Z,30.33
2018-04-10T22:08:11.686Z,28.67
2018-04-10T22:10:38.346Z,29.17
2018-04-10T22:13:05.710Z,32.90
2018-04-10T22:15:32.388Z,28.38
2018-04-10T22:17:59.855Z,27.70
2018-04-10T22:20:26.494Z,26.75
2018-04-10T22:22:53.487Z,26.62
2018-04-10T22:25:20.166Z,25.25
2018-04-10T22:27:46.986Z,26.98
2018-04-10T22:30:14.181Z,27.83
2018-04-10T22:32:41.151Z,25.62
2018-04-10T22:35:07.846Z,26.67
2018-04-10T22:37:34.502Z,29.23
2018-04-10T22:40:01.320Z,27.23
2018-04-10T22:42:28.995Z,28.30
2018-04-10T22:44:56.093Z,26.98
2018-04-10T22:47:23.365Z,27.20
2018-04-10T22:49:50.145Z,28.00
2018-04-10T22:52:19.224Z,29.50
2018-04-10T22:54:45.951Z,26.37
2018-04-10T22:57:12.615Z,25.67
2018-04-10T22:59:40.378Z,25.37
2018-04-10T23:02:07.202Z,26.60
2018-04-10T23:04:34.036Z,27.75
2018-04-10T23:07:08.623Z,26.10
2018-04-10T23:09:35.886Z,27.15
2018-04-10T23:12:02.527Z,26.90
2018-04-10T23:14:29.470Z,26.27
2018-04-10T23:16:56.168Z,25.52
2018-04-10T23:19:27.037Z,27.65
2018-04-10T23:21:54.471Z,25.25
2018-04-10T23:24:21.156Z,26.48
2018-04-10T23:26:48.959Z,27.15
2018-04-10T23:29:15.623Z,27.77
2018-04-10T23:31:42.303Z,26.42
2018-04-10T23:34:13.163Z,28.50
2018-04-10T23:36:41.393Z,25.12
2018-04-10T23:39:08.084Z,28.87
2018-04-10T23:41:34.775Z,28.30
2018-04-10T23:44:01.517Z,29.17
2018-04-10T23:46:28.231Z,30.90
2018-04-10T23:48:54.935Z,28.77
2018-04-10T23:51:21.623Z,31.73
2018-04-10T23:53:48.306Z,26.92
2018-04-10T23:56:14.978Z,26.77
2018-04-10T23:58:41.636Z,28.33
